sensor_id;sensor_type;location;lat;lon;timestamp;P1;durP1;ratioP1;P2;durP2;ratioP2
13408;SDS011;6775;49.574;11.170;2023-03-01T00:01:41;17.60;;;9.10;;
13408;SDS011;6775;49.574;11.170;2023-03-01T00:04:09;11.47;;;7.57;;
13408;SDS011;6775;49.574;11.170;2023-03-01T00:06:37;15.20;;;8.07;;
13408;SDS011;6775;49.574;11.170;2023-03-01T00:09:04;12.80;;;7.67;;
13408;SDS011;6775;49.574;11.170;2023-03-01T00:11:34;12.67;;;7.70;;
13408;SDS011;6775;49.574;11.170;2023-03-01T00:14:03;12.13;;;8.10;;
13408;SDS011;6775;49.574;11.170;2023-03-01T00:16:34;12.80;;;7.87;;
13408;SDS011;6775;49.574;11.170;2023-03-01T00:19:04;12.17;;;8.50;;
13408;SDS011;6775;49.574;11.170;2023-03-01T00:21:33;12.43;;;8.87;;
13408;SDS011;6775;49.574;11.170;2023-03-01T00:24:02;13.87;;;8.50;;
13408;SDS011;6775;49.574;11.170;2023-03-01T00:26:30;12.67;;;8.40;;
13408;SDS011;6775;49.574;11.170;2023-03-01T00:28:59;11.63;;;8.37;;
13408;SDS011;6775;49.574;11.170;2023-03-01T00:31:28;11.30;;;8.43;;
13408;SDS011;6775;49.574;11.170;2023-03-01T00:33:59;12.83;;;8.20;;
13408;SDS011;6775;49.574;11.170;2023-03-01T00:36:29;11.50;;;8.43;;
13408;SDS011;6775;49.574;11.170;2023-03-01T00:38:59;12.47;;;8.20;;
13408;SDS011;6775;49.574;11.170;2023-03-01T00:41:27;12.13;;;7.60;;
13408;SDS011;6775;49.574;11.170;2023-03-01T00:43:55;12.93;;;8.07;;
13408;SDS011;6775;49.574;11.170;2023-03-01T00:46:25;16.10;;;9.17;;
13408;SDS011;6775;49.574;11.170;2023-03-01T00:48:53;10.80;;;7.63;;
13408;SDS011;6775;49.574;11.170;2023-03-01T00:51:22;14.33;;;8.00;;
13408;SDS011;6775;49.574;11.170;2023-03-01T00:53:51;13.60;;;7.87;;
13408;SDS011;6775;49.574;11.170;2023-03-01T00:56:20;11.57;;;8.03;;
13408;SDS011;6775;49.574;11.170;2023-03-01T00:58:48;12.27;;;7.80;;
13408;SDS011;6775;49.574;11.170;2023-03-01T01:01:17;13.93;;;7.90;;
13408;SDS011;6775;49.574;11.170;2023-03-01T01:03:48;11.10;;;7.50;;
13408;SDS011;6775;49.574;11.170;2023-03-01T01:06:18;12.43;;;8.27;;
13408;SDS011;6775;49.574;11.170;2023-03-01T01:08:49;14.20;;;8.70;;
13408;SDS011;6775;49.574;11.170;2023-03-01T01:11:17;14.83;;;8.17;;
13408;SDS011;6775;49.574;11.170;2023-03-01T01:13:46;16.10;;;8.60;;
13408;SDS011;6775;49.574;11.170;2023-03-01T01:16:15;12.63;;;7.83;;
13408;SDS011;6775;49.574;11.170;2023-03-01T01:18:44;14.17;;;8.27;;
13408;SDS011;6775;49.574;11.170;2023-03-01T01:21:15;11.97;;;8.27;;
13408;SDS011;6775;49.574;11.170;2023-03-01T01:23:45;12.60;;;8.33;;
13408;SDS011;6775;49.574;11.170;2023-03-01T01:26:14;12.90;;;8.70;;
13408;SDS011;6775;49.574;11.170;2023-03-01T01:28:43;14.20;;;8.83;;
13408;SDS011;6775;49.574;11.170;2023-03-01T01:31:11;13.33;;;8.17;;
13408;SDS011;6775;49.574;11.170;2023-03-01T01:33:39;14.97;;;8.10;;
13408;SDS011;6775;49.574;11.170;2023-03-01T01:36:07;12.20;;;8.13;;
13408;SDS011;6775;49.574;11.170;2023-03-01T01:38:37;11.87;;;8.07;;
13408;SDS011;6775;49.574;11.170;2023-03-01T01:41:06;12.00;;;8.07;;
13408;SDS011;6775;49.574;11.170;2023-03-01T01:43:35;12.17;;;8.33;;
13408;SDS011;6775;49.574;11.170;2023-03-01T01:46:04;14.10;;;8.17;;
13408;SDS011;6775;49.574;11.170;2023-03-01T01:48:43;14.23;;;8.30;;
13408;SDS011;6775;49.574;11.170;2023-03-01T01:51:17;14.10;;;8.53;;
13408;SDS011;6775;49.574;11.170;2023-03-01T01:53:49;12.87;;;8.77;;
13408;SDS011;6775;49.574;11.170;2023-03-01T01:56:21;12.70;;;8.13;;
13408;SDS011;6775;49.574;11.170;2023-03-01T01:58:53;12.57;;;7.67;;
13408;SDS011;6775;49.574;11.170;2023-03-01T02:01:22;16.00;;;8.43;;
13408;SDS011;6775;49.574;11.170;2023-03-01T02:03:49;12.23;;;8.37;;
13408;SDS011;6775;49.574;11.170;2023-03-01T02:06:19;13.03;;;9.17;;
13408;SDS011;6775;49.574;11.170;2023-03-01T02:09:02;11.63;;;7.37;;
13408;SDS011;6775;49.574;11.170;2023-03-01T02:11:34;14.03;;;8.63;;
13408;SDS011;6775;49.574;11.170;2023-03-01T02:14:03;14.00;;;8.17;;
13408;SDS011;6775;49.574;11.170;2023-03-01T02:16:31;11.67;;;8.17;;
13408;SDS011;6775;49.574;11.170;2023-03-01T02:19:00;13.90;;;8.40;;
13408;SDS011;6775;49.574;11.170;2023-03-01T02:21:34;13.03;;;8.23;;
13408;SDS011;6775;49.574;11.170;2023-03-01T02:24:13;12.67;;;8.20;;
13408;SDS011;6775;49.574;11.170;2023-03-01T02:26:51;12.87;;;7.97;;
13408;SDS011;6775;49.574;11.170;2023-03-01T02:29:23;13.87;;;8.77;;
13408;SDS011;6775;49.574;11.170;2023-03-01T02:31:52;16.07;;;9.17;;
13408;SDS011;6775;49.574;11.170;2023-03-01T02:34:24;15.17;;;8.93;;
13408;SDS011;6775;49.574;11.170;2023-03-01T02:36:53;14.53;;;7.77;;
13408;SDS011;6775;49.574;11.170;2023-03-01T02:39:25;12.43;;;8.70;;
13408;SDS011;6775;49.574;11.170;2023-03-01T02:41:56;12.83;;;8.87;;
13408;SDS011;6775;49.574;11.170;2023-03-01T02:44:26;10.03;;;7.83;;
13408;SDS011;6775;49.574;11.170;2023-03-01T02:46:55;13.23;;;7.73;;
13408;SDS011;6775;49.574;11.170;2023-03-01T02:49:24;11.10;;;8.13;;
13408;SDS011;6775;49.574;11.170;2023-03-01T02:52:01;15.37;;;8.77;;
13408;SDS011;6775;49.574;11.170;2023-03-01T02:54:46;11.30;;;7.70;;
13408;SDS011;6775;49.574;11.170;2023-03-01T02:57:18;14.90;;;8.87;;
13408;SDS011;6775;49.574;11.170;2023-03-01T02:59:48;14.10;;;8.57;;
13408;SDS011;6775;49.574;11.170;2023-03-01T03:02:19;11.73;;;7.33;;
13408;SDS011;6775;49.574;11.170;2023-03-01T03:05:03;12.57;;;7.60;;
13408;SDS011;6775;49.574;11.170;2023-03-01T03:07:34;14.43;;;8.43;;
13408;SDS011;6775;49.574;11.170;2023-03-01T03:10:05;13.40;;;7.80;;
13408;SDS011;6775;49.574;11.170;2023-03-01T03:12:35;11.57;;;7.87;;
13408;SDS011;6775;49.574;11.170;2023-03-01T03:15:04;12.63;;;7.53;;
13408;SDS011;6775;49.574;11.170;2023-03-01T03:17:35;13.83;;;7.97;;
13408;SDS011;6775;49.574;11.170;2023-03-01T03:20:03;14.40;;;8.30;;
13408;SDS011;6775;49.574;11.170;2023-03-01T03:22:37;11.73;;;7.97;;
13408;SDS011;6775;49.574;11.170;2023-03-01T03:25:05;12.50;;;7.87;;
13408;SDS011;6775;49.574;11.170;2023-03-01T03:27:36;12.90;;;7.90;;
13408;SDS011;6775;49.574;11.170;2023-03-01T03:30:08;13.03;;;7.83;;
13408;SDS011;6775;49.574;11.170;2023-03-01T03:32:38;12.83;;;7.77;;
13408;SDS011;6775;49.574;11.170;2023-03-01T03:35:07;13.57;;;8.30;;
13408;SDS011;6775;49.574;11.170;2023-03-01T03:37:36;12.97;;;8.03;;
13408;SDS011;6775;49.574;11.170;2023-03-01T03:40:21;11.87;;;7.87;;
13408;SDS011;6775;49.574;11.170;2023-03-01T03:42:49;13.00;;;7.77;;
13408;SDS011;6775;49.574;11.170;2023-03-01T03:45:18;12.67;;;8.40;;
13408;SDS011;6775;49.574;11.170;2023-03-01T03:47:46;15.27;;;8.50;;
13408;SDS011;6775;49.574;11.170;2023-03-01T03:50:14;11.40;;;7.70;;
13408;SDS011;6775;49.574;11.170;2023-03-01T03:52:43;15.37;;;8.93;;
13408;SDS011;6775;49.574;11.170;2023-03-01T03:55:12;14.60;;;8.60;;
13408;SDS011;6775;49.574;11.170;2023-03-01T03:57:40;12.93;;;8.50;;
13408;SDS011;6775;49.574;11.170;2023-03-01T04:00:09;12.17;;;7.90;;
13408;SDS011;6775;49.574;11.170;2023-03-01T04:02:40;17.47;;;8.73;;
13408;SDS011;6775;49.574;11.170;2023-03-01T04:05:10;18.13;;;10.07;;
13408;SDS011;6775;49.574;11.170;2023-03-01T04:07:39;15.60;;;9.23;;
13408;SDS011;6775;49.574;11.170;2023-03-01T04:10:09;13.40;;;8.77;;
13408;SDS011;6775;49.574;11.170;2023-03-01T04:12:38;12.87;;;8.37;;
13408;SDS011;6775;49.574;11.170;2023-03-01T04:15:10;14.27;;;9.47;;
13408;SDS011;6775;49.574;11.170;2023-03-01T04:17:44;14.93;;;8.53;;
13408;SDS011;6775;49.574;11.170;2023-03-01T04:20:14;12.53;;;8.33;;
13408;SDS011;6775;49.574;11.170;2023-03-01T04:22:44;14.90;;;9.33;;
13408;SDS011;6775;49.574;11.170;2023-03-01T04:25:13;10.47;;;7.67;;
13408;SDS011;6775;49.574;11.170;2023-03-01T04:27:41;13.03;;;8.47;;
13408;SDS011;6775;49.574;11.170;2023-03-01T04:30:09;15.33;;;8.90;;
13408;SDS011;6775;49.574;11.170;2023-03-01T04:32:38;13.70;;;8.70;;
13408;SDS011;6775;49.574;11.170;2023-03-01T04:35:07;12.60;;;8.00;;
13408;SDS011;6775;49.574;11.170;2023-03-01T04:37:35;15.67;;;8.40;;
13408;SDS011;6775;49.574;11.170;2023-03-01T04:40:03;16.30;;;9.23;;
13408;SDS011;6775;49.574;11.170;2023-03-01T04:42:42;15.10;;;8.53;;
13408;SDS011;6775;49.574;11.170;2023-03-01T04:45:10;14.43;;;9.07;;
13408;SDS011;6775;49.574;11.170;2023-03-01T04:47:40;15.00;;;9.27;;
13408;SDS011;6775;49.574;11.170;2023-03-01T04:50:10;16.70;;;9.30;;
13408;SDS011;6775;49.574;11.170;2023-03-01T04:52:39;13.20;;;8.73;;
13408;SDS011;6775;49.574;11.170;2023-03-01T04:55:08;12.67;;;8.23;;
13408;SDS011;6775;49.574;11.170;2023-03-01T04:57:37;13.40;;;8.33;;
13408;SDS011;6775;49.574;11.170;2023-03-01T05:00:06;15.13;;;8.60;;
13408;SDS011;6775;49.574;11.170;2023-03-01T05:02:49;17.87;;;8.83;;
13408;SDS011;6775;49.574;11.170;2023-03-01T05:05:23;14.33;;;8.97;;
13408;SDS011;6775;49.574;11.170;2023-03-01T05:07:54;13.17;;;8.63;;
13408;SDS011;6775;49.574;11.170;2023-03-01T05:10:22;13.93;;;7.97;;
13408;SDS011;6775;49.574;11.170;2023-03-01T05:12:51;14.17;;;8.40;;
13408;SDS011;6775;49.574;11.170;2023-03-01T05:15:19;12.63;;;7.97;;
13408;SDS011;6775;49.574;11.170;2023-03-01T05:17:51;15.43;;;8.53;;
13408;SDS011;6775;49.574;11.170;2023-03-01T05:20:22;14.27;;;8.70;;
13408;SDS011;6775;49.574;11.170;2023-03-01T05:22:50;12.67;;;8.23;;
13408;SDS011;6775;49.574;11.170;2023-03-01T05:25:18;13.23;;;8.53;;
13408;SDS011;6775;49.574;11.170;2023-03-01T05:27:47;13.07;;;8.93;;
13408;SDS011;6775;49.574;11.170;2023-03-01T05:30:16;13.03;;;8.53;;
13408;SDS011;6775;49.574;11.170;2023-03-01T05:32:45;14.70;;;9.80;;
13408;SDS011;6775;49.574;11.170;2023-03-01T05:35:15;14.03;;;9.37;;
13408;SDS011;6775;49.574;11.170;2023-03-01T05:37:46;19.20;;;9.03;;
13408;SDS011;6775;49.574;11.170;2023-03-01T05:40:15;14.57;;;8.97;;
13408;SDS011;6775;49.574;11.170;2023-03-01T05:42:45;13.90;;;8.67;;
13408;SDS011;6775;49.574;11.170;2023-03-01T05:45:15;13.67;;;8.90;;
13408;SDS011;6775;49.574;11.170;2023-03-01T05:47:44;14.67;;;10.23;;
13408;SDS011;6775;49.574;11.170;2023-03-01T05:50:14;13.37;;;8.53;;
13408;SDS011;6775;49.574;11.170;2023-03-01T05:52:47;16.90;;;9.30;;
13408;SDS011;6775;49.574;11.170;2023-03-01T05:55:16;13.50;;;8.63;;
13408;SDS011;6775;49.574;11.170;2023-03-01T05:57:45;17.63;;;9.17;;
13408;SDS011;6775;49.574;11.170;2023-03-01T06:00:15;13.77;;;9.00;;
13408;SDS011;6775;49.574;11.170;2023-03-01T06:02:44;15.03;;;8.23;;
13408;SDS011;6775;49.574;11.170;2023-03-01T06:05:13;14.93;;;8.73;;
13408;SDS011;6775;49.574;11.170;2023-03-01T06:07:41;17.23;;;9.90;;
13408;SDS011;6775;49.574;11.170;2023-03-01T06:10:12;13.27;;;8.80;;
13408;SDS011;6775;49.574;11.170;2023-03-01T06:12:41;12.47;;;8.80;;
13408;SDS011;6775;49.574;11.170;2023-03-01T06:15:10;15.97;;;8.70;;
13408;SDS011;6775;49.574;11.170;2023-03-01T06:17:40;12.37;;;7.47;;
13408;SDS011;6775;49.574;11.170;2023-03-01T06:20:11;11.37;;;8.00;;
13408;SDS011;6775;49.574;11.170;2023-03-01T06:22:40;13.43;;;8.70;;
13408;SDS011;6775;49.574;11.170;2023-03-01T06:25:08;13.67;;;8.57;;
13408;SDS011;6775;49.574;11.170;2023-03-01T06:27:39;14.90;;;9.30;;
13408;SDS011;6775;49.574;11.170;2023-03-01T06:30:08;15.20;;;9.10;;
13408;SDS011;6775;49.574;11.170;2023-03-01T06:32:38;16.50;;;9.07;;
13408;SDS011;6775;49.574;11.170;2023-03-01T06:35:08;14.33;;;8.50;;
13408;SDS011;6775;49.574;11.170;2023-03-01T06:37:37;14.57;;;8.93;;
13408;SDS011;6775;49.574;11.170;2023-03-01T06:40:05;14.07;;;8.27;;
13408;SDS011;6775;49.574;11.170;2023-03-01T06:42:34;14.97;;;8.83;;
13408;SDS011;6775;49.574;11.170;2023-03-01T06:45:05;16.90;;;9.70;;
13408;SDS011;6775;49.574;11.170;2023-03-01T06:47:34;16.57;;;9.40;;
13408;SDS011;6775;49.574;11.170;2023-03-01T06:50:02;14.23;;;8.47;;
13408;SDS011;6775;49.574;11.170;2023-03-01T06:52:30;13.87;;;9.17;;
13408;SDS011;6775;49.574;11.170;2023-03-01T06:54:58;17.83;;;9.40;;
13408;SDS011;6775;49.574;11.170;2023-03-01T06:57:27;16.20;;;9.80;;
13408;SDS011;6775;49.574;11.170;2023-03-01T06:59:54;15.50;;;9.13;;
13408;SDS011;6775;49.574;11.170;2023-03-01T07:02:24;12.70;;;8.73;;
13408;SDS011;6775;49.574;11.170;2023-03-01T07:04:52;16.10;;;8.80;;
13408;SDS011;6775;49.574;11.170;2023-03-01T07:07:20;13.17;;;8.87;;
13408;SDS011;6775;49.574;11.170;2023-03-01T07:09:48;16.47;;;9.40;;
13408;SDS011;6775;49.574;11.170;2023-03-01T07:12:16;14.10;;;9.57;;
13408;SDS011;6775;49.574;11.170;2023-03-01T07:14:44;14.70;;;9.20;;
13408;SDS011;6775;49.574;11.170;2023-03-01T07:17:12;13.40;;;8.87;;
13408;SDS011;6775;49.574;11.170;2023-03-01T07:19:41;14.97;;;8.97;;
13408;SDS011;6775;49.574;11.170;2023-03-01T07:22:08;13.40;;;9.23;;
13408;SDS011;6775;49.574;11.170;2023-03-01T07:24:36;16.07;;;9.40;;
13408;SDS011;6775;49.574;11.170;2023-03-01T07:27:04;13.10;;;9.37;;
13408;SDS011;6775;49.574;11.170;2023-03-01T07:29:32;15.07;;;9.23;;
13408;SDS011;6775;49.574;11.170;2023-03-01T07:32:02;13.03;;;8.53;;
13408;SDS011;6775;49.574;11.170;2023-03-01T07:34:30;16.83;;;9.97;;
13408;SDS011;6775;49.574;11.170;2023-03-01T07:37:00;13.33;;;9.30;;
13408;SDS011;6775;49.574;11.170;2023-03-01T07:39:27;14.17;;;9.03;;
13408;SDS011;6775;49.574;11.170;2023-03-01T07:41:55;12.83;;;8.47;;
13408;SDS011;6775;49.574;11.170;2023-03-01T07:44:23;12.90;;;8.67;;
13408;SDS011;6775;49.574;11.170;2023-03-01T07:46:51;13.03;;;9.17;;
13408;SDS011;6775;49.574;11.170;2023-03-01T07:49:22;16.03;;;9.90;;
13408;SDS011;6775;49.574;11.170;2023-03-01T07:51:52;14.67;;;10.37;;
13408;SDS011;6775;49.574;11.170;2023-03-01T07:54:21;14.93;;;9.20;;
13408;SDS011;6775;49.574;11.170;2023-03-01T07:56:49;17.30;;;10.13;;
13408;SDS011;6775;49.574;11.170;2023-03-01T07:59:17;14.07;;;9.90;;
13408;SDS011;6775;49.574;11.170;2023-03-01T08:01:45;16.23;;;11.07;;
13408;SDS011;6775;49.574;11.170;2023-03-01T08:04:13;20.60;;;10.17;;
13408;SDS011;6775;49.574;11.170;2023-03-01T08:06:41;14.77;;;9.60;;
13408;SDS011;6775;49.574;11.170;2023-03-01T08:09:08;13.43;;;9.90;;
13408;SDS011;6775;49.574;11.170;2023-03-01T08:11:37;17.17;;;11.10;;
13408;SDS011;6775;49.574;11.170;2023-03-01T08:14:05;16.93;;;10.30;;
13408;SDS011;6775;49.574;11.170;2023-03-01T08:16:33;17.10;;;10.27;;
13408;SDS011;6775;49.574;11.170;2023-03-01T08:19:03;15.90;;;9.97;;
13408;SDS011;6775;49.574;11.170;2023-03-01T08:21:32;15.63;;;9.40;;
13408;SDS011;6775;49.574;11.170;2023-03-01T08:24:00;15.83;;;9.60;;
13408;SDS011;6775;49.574;11.170;2023-03-01T08:26:28;16.87;;;10.50;;
13408;SDS011;6775;49.574;11.170;2023-03-01T08:28:59;15.93;;;10.03;;
13408;SDS011;6775;49.574;11.170;2023-03-01T08:31:29;14.97;;;9.80;;
13408;SDS011;6775;49.574;11.170;2023-03-01T08:33:59;13.87;;;10.07;;
13408;SDS011;6775;49.574;11.170;2023-03-01T08:36:30;15.10;;;10.20;;
13408;SDS011;6775;49.574;11.170;2023-03-01T08:38:59;17.37;;;10.10;;
13408;SDS011;6775;49.574;11.170;2023-03-01T08:41:27;14.33;;;11.07;;
13408;SDS011;6775;49.574;11.170;2023-03-01T08:43:55;15.80;;;10.43;;
13408;SDS011;6775;49.574;11.170;2023-03-01T08:46:27;15.53;;;9.97;;
13408;SDS011;6775;49.574;11.170;2023-03-01T08:48:56;17.13;;;10.17;;
13408;SDS011;6775;49.574;11.170;2023-03-01T08:51:25;14.60;;;9.27;;
13408;SDS011;6775;49.574;11.170;2023-03-01T08:53:53;11.63;;;9.23;;
13408;SDS011;6775;49.574;11.170;2023-03-01T08:56:21;13.20;;;9.77;;
13408;SDS011;6775;49.574;11.170;2023-03-01T08:58:49;11.60;;;9.80;;
13408;SDS011;6775;49.574;11.170;2023-03-01T09:01:18;13.47;;;10.70;;
13408;SDS011;6775;49.574;11.170;2023-03-01T09:03:48;15.80;;;10.20;;
13408;SDS011;6775;49.574;11.170;2023-03-01T09:06:15;13.83;;;9.83;;
13408;SDS011;6775;49.574;11.170;2023-03-01T09:08:44;12.97;;;10.83;;
13408;SDS011;6775;49.574;11.170;2023-03-01T09:11:13;15.07;;;10.53;;
13408;SDS011;6775;49.574;11.170;2023-03-01T09:13:43;12.80;;;10.77;;
13408;SDS011;6775;49.574;11.170;2023-03-01T09:16:11;14.20;;;10.87;;
13408;SDS011;6775;49.574;11.170;2023-03-01T09:18:40;12.50;;;10.67;;
13408;SDS011;6775;49.574;11.170;2023-03-01T09:21:10;11.70;;;10.50;;
13408;SDS011;6775;49.574;11.170;2023-03-01T09:23:40;15.10;;;10.90;;
13408;SDS011;6775;49.574;11.170;2023-03-01T09:26:09;13.30;;;11.20;;
13408;SDS011;6775;49.574;11.170;2023-03-01T09:28:38;11.93;;;9.40;;
13408;SDS011;6775;49.574;11.170;2023-03-01T09:31:06;11.87;;;9.83;;
13408;SDS011;6775;49.574;11.170;2023-03-01T09:33:34;10.63;;;9.13;;
13408;SDS011;6775;49.574;11.170;2023-03-01T09:36:03;11.53;;;10.33;;
13408;SDS011;6775;49.574;11.170;2023-03-01T09:38:34;12.33;;;10.07;;
13408;SDS011;6775;49.574;11.170;2023-03-01T09:41:02;11.43;;;10.20;;
13408;SDS011;6775;49.574;11.170;2023-03-01T09:43:37;11.67;;;9.83;;
13408;SDS011;6775;49.574;11.170;2023-03-01T09:46:09;10.53;;;9.37;;
13408;SDS011;6775;49.574;11.170;2023-03-01T09:48:43;11.53;;;10.00;;
13408;SDS011;6775;49.574;11.170;2023-03-01T09:51:17;12.67;;;9.90;;
13408;SDS011;6775;49.574;11.170;2023-03-01T09:53:50;11.00;;;9.60;;
13408;SDS011;6775;49.574;11.170;2023-03-01T09:56:20;9.93;;;8.27;;
13408;SDS011;6775;49.574;11.170;2023-03-01T09:58:56;11.47;;;9.03;;
13408;SDS011;6775;49.574;11.170;2023-03-01T10:01:30;10.60;;;9.50;;
13408;SDS011;6775;49.574;11.170;2023-03-01T10:04:08;10.43;;;9.20;;
13408;SDS011;6775;49.574;11.170;2023-03-01T10:06:48;12.40;;;10.43;;
13408;SDS011;6775;49.574;11.170;2023-03-01T10:09:25;11.20;;;9.53;;
13408;SDS011;6775;49.574;11.170;2023-03-01T10:11:57;10.63;;;9.57;;
13408;SDS011;6775;49.574;11.170;2023-03-01T10:14:28;10.47;;;8.13;;
13408;SDS011;6775;49.574;11.170;2023-03-01T10:17:01;12.50;;;9.90;;
13408;SDS011;6775;49.574;11.170;2023-03-01T10:19:32;11.93;;;10.70;;
13408;SDS011;6775;49.574;11.170;2023-03-01T10:22:04;10.57;;;9.47;;
13408;SDS011;6775;49.574;11.170;2023-03-01T10:24:39;10.43;;;9.27;;
13408;SDS011;6775;49.574;11.170;2023-03-01T10:27:07;10.70;;;9.17;;
13408;SDS011;6775;49.574;11.170;2023-03-01T10:29:43;9.13;;;8.23;;
13408;SDS011;6775;49.574;11.170;2023-03-01T10:32:17;10.00;;;8.67;;
13408;SDS011;6775;49.574;11.170;2023-03-01T10:34:50;12.13;;;10.57;;
13408;SDS011;6775;49.574;11.170;2023-03-01T10:37:19;11.60;;;10.50;;
13408;SDS011;6775;49.574;11.170;2023-03-01T10:39:58;13.00;;;10.97;;
13408;SDS011;6775;49.574;11.170;2023-03-01T10:42:33;11.67;;;10.17;;
13408;SDS011;6775;49.574;11.170;2023-03-01T10:45:16;10.27;;;8.70;;
13408;SDS011;6775;49.574;11.170;2023-03-01T10:48:02;13.77;;;10.80;;
13408;SDS011;6775;49.574;11.170;2023-03-01T10:50:32;12.77;;;10.73;;
13408;SDS011;6775;49.574;11.170;2023-03-01T10:53:01;11.60;;;9.87;;
13408;SDS011;6775;49.574;11.170;2023-03-01T10:55:33;10.43;;;9.37;;
13408;SDS011;6775;49.574;11.170;2023-03-01T10:58:07;11.20;;;9.60;;
13408;SDS011;6775;49.574;11.170;2023-03-01T11:00:46;12.00;;;10.67;;
13408;SDS011;6775;49.574;11.170;2023-03-01T11:03:18;9.40;;;7.80;;
13408;SDS011;6775;49.574;11.170;2023-03-01T11:05:53;9.83;;;8.43;;
13408;SDS011;6775;49.574;11.170;2023-03-01T11:08:30;10.57;;;7.83;;
13408;SDS011;6775;49.574;11.170;2023-03-01T11:11:12;9.33;;;8.30;;
13408;SDS011;6775;49.574;11.170;2023-03-01T11:13:55;11.20;;;9.60;;
13408;SDS011;6775;49.574;11.170;2023-03-01T11:16:26;11.20;;;9.57;;
13408;SDS011;6775;49.574;11.170;2023-03-01T11:18:57;11.47;;;10.27;;
13408;SDS011;6775;49.574;11.170;2023-03-01T11:21:43;10.10;;;9.10;;
13408;SDS011;6775;49.574;11.170;2023-03-01T11:24:19;10.60;;;9.50;;
13408;SDS011;6775;49.574;11.170;2023-03-01T11:26:53;9.77;;;8.77;;
13408;SDS011;6775;49.574;11.170;2023-03-01T11:29:26;10.90;;;9.53;;
13408;SDS011;6775;49.574;11.170;2023-03-01T11:32:07;9.80;;;8.70;;
13408;SDS011;6775;49.574;11.170;2023-03-01T11:34:42;10.73;;;9.43;;
13408;SDS011;6775;49.574;11.170;2023-03-01T11:37:16;11.33;;;9.33;;
13408;SDS011;6775;49.574;11.170;2023-03-01T11:39:53;10.20;;;9.07;;
13408;SDS011;6775;49.574;11.170;2023-03-01T11:42:29;9.87;;;8.13;;
13408;SDS011;6775;49.574;11.170;2023-03-01T11:45:10;9.70;;;7.70;;
13408;SDS011;6775;49.574;11.170;2023-03-01T11:50:29;10.83;;;9.70;;
13408;SDS011;6775;49.574;11.170;2023-03-01T11:53:06;10.27;;;8.17;;
13408;SDS011;6775;49.574;11.170;2023-03-01T11:55:59;10.30;;;8.63;;
13408;SDS011;6775;49.574;11.170;2023-03-01T11:58:41;11.37;;;10.13;;
13408;SDS011;6775;49.574;11.170;2023-03-01T12:01:24;11.23;;;8.87;;
13408;SDS011;6775;49.574;11.170;2023-03-01T12:06:55;11.17;;;9.67;;
13408;SDS011;6775;49.574;11.170;2023-03-01T12:09:31;8.47;;;7.60;;
13408;SDS011;6775;49.574;11.170;2023-03-01T12:12:16;11.20;;;9.17;;
13408;SDS011;6775;49.574;11.170;2023-03-01T12:18:09;9.87;;;8.20;;
13408;SDS011;6775;49.574;11.170;2023-03-01T12:21:14;11.07;;;9.40;;
13408;SDS011;6775;49.574;11.170;2023-03-01T12:23:54;9.07;;;8.00;;
13408;SDS011;6775;49.574;11.170;2023-03-01T12:26:43;9.03;;;8.10;;
13408;SDS011;6775;49.574;11.170;2023-03-01T12:29:24;9.73;;;8.57;;
13408;SDS011;6775;49.574;11.170;2023-03-01T12:32:10;12.13;;;9.80;;
13408;SDS011;6775;49.574;11.170;2023-03-01T12:34:55;10.83;;;8.67;;
13408;SDS011;6775;49.574;11.170;2023-03-01T12:37:40;10.57;;;9.00;;
13408;SDS011;6775;49.574;11.170;2023-03-01T12:40:26;11.97;;;8.90;;
13408;SDS011;6775;49.574;11.170;2023-03-01T12:43:22;11.73;;;9.07;;
13408;SDS011;6775;49.574;11.170;2023-03-01T12:46:15;9.83;;;8.57;;
13408;SDS011;6775;49.574;11.170;2023-03-01T12:48:54;8.37;;;7.57;;
13408;SDS011;6775;49.574;11.170;2023-03-01T12:51:30;11.83;;;9.70;;
13408;SDS011;6775;49.574;11.170;2023-03-01T12:54:01;11.43;;;9.70;;
13408;SDS011;6775;49.574;11.170;2023-03-01T12:56:38;9.80;;;8.80;;
13408;SDS011;6775;49.574;11.170;2023-03-01T12:59:08;11.93;;;9.57;;
13408;SDS011;6775;49.574;11.170;2023-03-01T13:01:44;8.90;;;8.00;;
13408;SDS011;6775;49.574;11.170;2023-03-01T13:07:19;8.70;;;7.80;;
13408;SDS011;6775;49.574;11.170;2023-03-01T13:09:55;10.23;;;8.17;;
13408;SDS011;6775;49.574;11.170;2023-03-01T13:12:45;11.00;;;8.87;;
13408;SDS011;6775;49.574;11.170;2023-03-01T13:15:33;9.20;;;7.93;;
13408;SDS011;6775;49.574;11.170;2023-03-01T13:18:03;9.80;;;7.90;;
13408;SDS011;6775;49.574;11.170;2023-03-01T13:20:53;11.17;;;9.93;;
13408;SDS011;6775;49.574;11.170;2023-03-01T13:23:24;9.30;;;8.37;;
13408;SDS011;6775;49.574;11.170;2023-03-01T13:26:01;11.30;;;10.10;;
13408;SDS011;6775;49.574;11.170;2023-03-01T13:28:39;10.63;;;8.73;;
13408;SDS011;6775;49.574;11.170;2023-03-01T13:31:09;10.30;;;8.93;;
13408;SDS011;6775;49.574;11.170;2023-03-01T13:33:40;11.30;;;9.33;;
13408;SDS011;6775;49.574;11.170;2023-03-01T13:39:28;9.73;;;8.73;;
13408;SDS011;6775;49.574;11.170;2023-03-01T13:42:27;10.63;;;8.90;;
13408;SDS011;6775;49.574;11.170;2023-03-01T13:45:03;12.80;;;9.23;;
13408;SDS011;6775;49.574;11.170;2023-03-01T13:47:41;12.50;;;9.87;;
13408;SDS011;6775;49.574;11.170;2023-03-01T13:50:16;12.70;;;9.20;;
13408;SDS011;6775;49.574;11.170;2023-03-01T13:52:50;10.43;;;9.03;;
13408;SDS011;6775;49.574;11.170;2023-03-01T13:55:24;11.70;;;8.57;;
13408;SDS011;6775;49.574;11.170;2023-03-01T13:57:57;10.10;;;9.07;;
13408;SDS011;6775;49.574;11.170;2023-03-01T14:00:31;10.50;;;8.53;;
13408;SDS011;6775;49.574;11.170;2023-03-01T14:03:03;9.87;;;8.40;;
13408;SDS011;6775;49.574;11.170;2023-03-01T14:05:36;11.87;;;9.00;;
13408;SDS011;6775;49.574;11.170;2023-03-01T14:08:17;12.33;;;10.10;;
13408;SDS011;6775;49.574;11.170;2023-03-01T14:13:48;11.50;;;9.23;;
13408;SDS011;6775;49.574;11.170;2023-03-01T14:16:27;12.03;;;9.53;;
13408;SDS011;6775;49.574;11.170;2023-03-01T14:19:14;13.20;;;9.93;;
13408;SDS011;6775;49.574;11.170;2023-03-01T14:21:58;11.80;;;10.03;;
13408;SDS011;6775;49.574;11.170;2023-03-01T14:24:32;11.77;;;9.60;;
13408;SDS011;6775;49.574;11.170;2023-03-01T14:27:04;12.93;;;9.97;;
13408;SDS011;6775;49.574;11.170;2023-03-01T14:29:39;12.53;;;10.50;;
13408;SDS011;6775;49.574;11.170;2023-03-01T14:32:11;13.20;;;9.23;;
13408;SDS011;6775;49.574;11.170;2023-03-01T14:34:45;12.33;;;9.63;;
13408;SDS011;6775;49.574;11.170;2023-03-01T14:37:18;11.97;;;8.70;;
13408;SDS011;6775;49.574;11.170;2023-03-01T14:39:50;10.00;;;8.10;;
13408;SDS011;6775;49.574;11.170;2023-03-01T14:42:19;9.70;;;8.00;;
13408;SDS011;6775;49.574;11.170;2023-03-01T14:44:50;11.67;;;8.80;;
13408;SDS011;6775;49.574;11.170;2023-03-01T14:47:22;10.73;;;8.33;;
13408;SDS011;6775;49.574;11.170;2023-03-01T14:49:56;10.23;;;8.37;;
13408;SDS011;6775;49.574;11.170;2023-03-01T14:52:29;12.53;;;8.97;;
13408;SDS011;6775;49.574;11.170;2023-03-01T14:55:04;13.70;;;8.83;;
13408;SDS011;6775;49.574;11.170;2023-03-01T14:57:34;11.27;;;7.70;;
13408;SDS011;6775;49.574;11.170;2023-03-01T15:00:03;11.13;;;7.70;;
13408;SDS011;6775;49.574;11.170;2023-03-01T15:02:34;12.17;;;8.40;;
13408;SDS011;6775;49.574;11.170;2023-03-01T15:05:05;11.80;;;8.17;;
13408;SDS011;6775;49.574;11.170;2023-03-01T15:07:35;12.80;;;7.50;;
13408;SDS011;6775;49.574;11.170;2023-03-01T15:10:14;10.77;;;7.80;;
13408;SDS011;6775;49.574;11.170;2023-03-01T15:12:46;11.40;;;7.63;;
13408;SDS011;6775;49.574;11.170;2023-03-01T15:18:02;13.20;;;8.03;;
13408;SDS011;6775;49.574;11.170;2023-03-01T15:20:33;13.07;;;7.57;;
13408;SDS011;6775;49.574;11.170;2023-03-01T15:23:04;12.13;;;8.37;;